sensor_id;sensor_type;location;lat;lon;timestamp;temperature;humidity
37310;DHT22;23195;47.744;7.358;2023-05-07T06:00:37;18.60;99.90
37310;DHT22;23195;47.744;7.358;2023-05-07T06:03:13;18.30;99.90
37310;DHT22;23195;47.744;7.358;2023-05-07T06:05:39;17.90;99.90
37310;DHT22;23195;47.744;7.358;2023-05-07T06:08:05;17.90;99.90
37310;DHT22;23195;47.744;7.358;2023-05-07T06:10:31;17.90;99.90
37310;DHT22;23195;47.744;7.358;2023-05-07T06:12:56;17.90;99.90
37310;DHT22;23195;47.744;7.358;2023-05-07T06:15:22;17.80;99.90
37310;DHT22;23195;47.744;7.358;2023-05-07T06:17:48;17.80;99.90
37310;DHT22;23195;47.744;7.358;2023-05-07T06:20:14;17.70;99.90
37310;DHT22;23195;47.744;7.358;2023-05-07T06:22:43;17.10;99.90
37310;DHT22;23195;47.744;7.358;2023-05-07T06:25:09;16.90;99.90
37310;DHT22;23195;47.744;7.358;2023-05-07T06:27:35;17.00;99.90
37310;DHT22;23195;47.744;7.358;2023-05-07T06:30:01;17.10;99.90
37310;DHT22;23195;47.744;7.358;2023-05-07T06:32:26;17.40;99.90
37310;DHT22;23195;47.744;7.358;2023-05-07T06:34:52;17.30;99.90
37310;DHT22;23195;47.744;7.358;2023-05-07T06:37:18;17.70;99.90
37310;DHT22;23195;47.744;7.358;2023-05-07T06:39:44;17.90;99.90
37310;DHT22;23195;47.744;7.358;2023-05-07T06:42:11;18.10;99.90
37310;DHT22;23195;47.744;7.358;2023-05-07T06:44:53;18.70;99.90
37310;DHT22;23195;47.744;7.358;2023-05-07T06:47:38;19.80;99.90
37310;DHT22;23195;47.744;7.358;2023-05-07T06:50:14;21.30;99.90
37310;DHT22;23195;47.744;7.358;2023-05-07T06:53:01;22.20;99.90
37310;DHT22;23195;47.744;7.358;2023-05-07T06:55:37;22.70;99.90
37310;DHT22;23195;47.744;7.358;2023-05-07T06:58:25;22.90;99.90
37310;DHT22;23195;47.744;7.358;2023-05-07T07:04:34;24.60;99.90
37310;DHT22;23195;47.744;7.358;2023-05-07T07:07:18;25.60;95.70
37310;DHT22;23195;47.744;7.358;2023-05-07T07:13:06;26.10;92.20
37310;DHT22;23195;47.744;7.358;2023-05-07T07:18:36;25.90;91.30
37310;DHT22;23195;47.744;7.358;2023-05-07T07:21:17;25.80;91.00
37310;DHT22;23195;47.744;7.358;2023-05-07T07:27:00;25.50;91.30
37310;DHT22;23195;47.744;7.358;2023-05-07T07:35:32;25.20;91.20
37310;DHT22;23195;47.744;7.358;2023-05-07T07:41:17;23.40;93.60
37310;DHT22;23195;47.744;7.358;2023-05-07T07:43:59;23.80;94.70
37310;DHT22;23195;47.744;7.358;2023-05-07T07:46:55;24.00;94.50
37310;DHT22;23195;47.744;7.358;2023-05-07T07:49:41;24.40;93.70
37310;DHT22;23195;47.744;7.358;2023-05-07T07:52:34;24.90;93.20
37310;DHT22;23195;47.744;7.358;2023-05-07T07:55:13;25.50;92.50
37310;DHT22;23195;47.744;7.358;2023-05-07T08:04:43;24.70;93.90
37310;DHT22;23195;47.744;7.358;2023-05-07T08:07:12;24.00;94.70
37310;DHT22;23195;47.744;7.358;2023-05-07T08:10:01;23.40;95.60
37310;DHT22;23195;47.744;7.358;2023-05-07T08:12:38;22.60;98.00
37310;DHT22;23195;47.744;7.358;2023-05-07T08:15:18;21.90;99.90
37310;DHT22;23195;47.744;7.358;2023-05-07T08:17:55;21.60;99.90
37310;DHT22;23195;47.744;7.358;2023-05-07T08:20:25;21.40;99.90
37310;DHT22;23195;47.744;7.358;2023-05-07T08:23:32;21.30;99.90
37310;DHT22;23195;47.744;7.358;2023-05-07T08:29:26;20.60;99.90
37310;DHT22;23195;47.744;7.358;2023-05-07T08:31:54;20.30;99.90
37310;DHT22;23195;47.744;7.358;2023-05-07T08:34:46;20.10;99.90
37310;DHT22;23195;47.744;7.358;2023-05-07T08:37:36;19.90;99.90
37310;DHT22;23195;47.744;7.358;2023-05-07T08:40:40;19.70;99.90
37310;DHT22;23195;47.744;7.358;2023-05-07T08:43:39;19.50;99.90
37310;DHT22;23195;47.744;7.358;2023-05-07T08:46:48;19.50;99.90
37310;DHT22;23195;47.744;7.358;2023-05-07T08:52:34;19.30;99.90
37310;DHT22;23195;47.744;7.358;2023-05-07T08:55:06;19.40;99.90
37310;DHT22;23195;47.744;7.358;2023-05-07T08:57:43;19.70;99.90
37310;DHT22;23195;47.744;7.358;2023-05-07T09:03:55;19.40;99.90
37310;DHT22;23195;47.744;7.358;2023-05-07T09:06:24;19.20;99.90
37310;DHT22;23195;47.744;7.358;2023-05-07T09:08:56;19.20;99.90
37310;DHT22;23195;47.744;7.358;2023-05-07T09:11:33;19.10;99.90
37310;DHT22;23195;47.744;7.358;2023-05-07T09:14:02;19.00;99.90
37310;DHT22;23195;47.744;7.358;2023-05-07T09:16:30;18.80;99.90
37310;DHT22;23195;47.744;7.358;2023-05-07T09:19:11;18.50;99.90
37310;DHT22;23195;47.744;7.358;2023-05-07T09:21:40;18.40;99.90
37310;DHT22;23195;47.744;7.358;2023-05-07T09:24:12;17.10;99.90
37310;DHT22;23195;47.744;7.358;2023-05-07T09:26:45;18.10;99.90
37310;DHT22;23195;47.744;7.358;2023-05-07T09:29:15;18.10;99.90
37310;DHT22;23195;47.744;7.358;2023-05-07T09:32:09;18.10;99.90
37310;DHT22;23195;47.744;7.358;2023-05-07T09:34:45;18.10;99.90
37310;DHT22;23195;47.744;7.358;2023-05-07T09:37:31;18.00;99.90
37310;DHT22;23195;47.744;7.358;2023-05-07T09:40:24;17.90;99.90
37310;DHT22;23195;47.744;7.358;2023-05-07T09:55:51;17.90;99.90
37310;DHT22;23195;47.744;7.358;2023-05-07T09:58:33;18.00;99.90
37310;DHT22;23195;47.744;7.358;2023-05-07T10:01:51;18.10;99.90
37310;DHT22;23195;47.744;7.358;2023-05-07T10:04:40;18.20;99.90
37310;DHT22;23195;47.744;7.358;2023-05-07T10:35:51;20.70;99.90
37310;DHT22;23195;47.744;7.358;2023-05-07T10:38:40;20.90;99.90
37310;DHT22;23195;47.744;7.358;2023-05-07T10:41:06;21.00;99.90
37310;DHT22;23195;47.744;7.358;2023-05-07T10:50:45;21.40;99.90
37310;DHT22;23195;47.744;7.358;2023-05-07T11:02:08;21.50;99.90
37310;DHT22;23195;47.744;7.358;2023-05-07T11:05:21;21.70;99.90
37310;DHT22;23195;47.744;7.358;2023-05-07T11:08:18;21.90;99.90
37310;DHT22;23195;47.744;7.358;2023-05-07T11:14:44;22.20;99.90
37310;DHT22;23195;47.744;7.358;2023-05-07T11:17:13;22.30;99.90
37310;DHT22;23195;47.744;7.358;2023-05-07T11:19:52;22.30;99.90
37310;DHT22;23195;47.744;7.358;2023-05-07T11:25:07;22.00;99.90
37310;DHT22;23195;47.744;7.358;2023-05-07T11:30:43;22.10;99.90
37310;DHT22;23195;47.744;7.358;2023-05-07T11:33:35;22.10;99.90
37310;DHT22;23195;47.744;7.358;2023-05-07T11:36:32;22.30;99.90
37310;DHT22;23195;47.744;7.358;2023-05-07T11:39:43;22.30;99.90
37310;DHT22;23195;47.744;7.358;2023-05-07T11:45:28;22.00;99.90
37310;DHT22;23195;47.744;7.358;2023-05-07T11:48:40;22.20;99.90
37310;DHT22;23195;47.744;7.358;2023-05-07T11:51:32;22.20;99.90
37310;DHT22;23195;47.744;7.358;2023-05-07T11:54:03;22.00;99.90
37310;DHT22;23195;47.744;7.358;2023-05-07T11:57:06;21.80;99.90
37310;DHT22;23195;47.744;7.358;2023-05-07T11:59:47;21.80;99.90
37310;DHT22;23195;47.744;7.358;2023-05-07T12:02:27;21.90;99.90
37310;DHT22;23195;47.744;7.358;2023-05-07T12:09:02;21.90;99.90
37310;DHT22;23195;47.744;7.358;2023-05-07T12:15:37;21.60;99.90
37310;DHT22;23195;47.744;7.358;2023-05-07T12:21:30;22.00;99.90
37310;DHT22;23195;47.744;7.358;2023-05-07T12:27:53;22.40;99.90
37310;DHT22;23195;47.744;7.358;2023-05-07T12:30:36;22.70;99.90
37310;DHT22;23195;47.744;7.358;2023-05-07T12:36:25;23.40;99.90
37310;DHT22;23195;47.744;7.358;2023-05-07T12:39:08;23.60;99.90
37310;DHT22;23195;47.744;7.358;2023-05-07T12:42:05;23.50;99.90
37310;DHT22;23195;47.744;7.358;2023-05-07T12:44:45;23.60;99.90
37310;DHT22;23195;47.744;7.358;2023-05-07T12:47:11;23.70;99.90
37310;DHT22;23195;47.744;7.358;2023-05-07T12:53:20;23.90;99.90
37310;DHT22;23195;47.744;7.358;2023-05-07T12:56:30;24.20;99.90
37310;DHT22;23195;47.744;7.358;2023-05-07T12:59:15;24.50;99.90
37310;DHT22;23195;47.744;7.358;2023-05-07T13:02:02;24.50;99.90
37310;DHT22;23195;47.744;7.358;2023-05-07T13:05:23;24.30;99.90
37310;DHT22;23195;47.744;7.358;2023-05-07T13:21:18;24.60;99.90
37310;DHT22;23195;47.744;7.358;2023-05-07T13:23:46;24.60;99.90
37310;DHT22;23195;47.744;7.358;2023-05-07T13:30:28;24.40;99.90
37310;DHT22;23195;47.744;7.358;2023-05-07T13:32:56;24.50;99.90
37310;DHT22;23195;47.744;7.358;2023-05-07T13:35:24;24.30;99.90
37310;DHT22;23195;47.744;7.358;2023-05-07T13:37:53;24.30;99.90
37310;DHT22;23195;47.744;7.358;2023-05-07T13:40:25;24.40;99.90
37310;DHT22;23195;47.744;7.358;2023-05-07T13:43:21;24.00;99.90
37310;DHT22;23195;47.744;7.358;2023-05-07T13:46:11;24.60;99.90
37310;DHT22;23195;47.744;7.358;2023-05-07T13:48:40;24.50;99.90
37310;DHT22;23195;47.744;7.358;2023-05-07T13:51:05;24.10;99.90
37310;DHT22;23195;47.744;7.358;2023-05-07T13:53:31;23.90;99.90
37310;DHT22;23195;47.744;7.358;2023-05-07T13:55:57;23.70;99.90
37310;DHT22;23195;47.744;7.358;2023-05-07T13:58:23;23.60;99.90
37310;DHT22;23195;47.744;7.358;2023-05-07T14:00:48;23.50;99.90
37310;DHT22;23195;47.744;7.358;2023-05-07T14:03:17;23.90;99.90
37310;DHT22;23195;47.744;7.358;2023-05-07T14:05:45;24.00;99.90
37310;DHT22;23195;47.744;7.358;2023-05-07T14:08:13;24.00;99.90
37310;DHT22;23195;47.744;7.358;2023-05-07T14:11:15;24.20;99.90
37310;DHT22;23195;47.744;7.358;2023-05-07T14:13:41;24.30;99.90
37310;DHT22;23195;47.744;7.358;2023-05-07T14:16:07;24.30;99.90
37310;DHT22;23195;47.744;7.358;2023-05-07T14:18:40;24.00;99.90
37310;DHT22;23195;47.744;7.358;2023-05-07T14:21:06;24.00;99.90
37310;DHT22;23195;47.744;7.358;2023-05-07T14:23:57;24.00;99.90
37310;DHT22;23195;47.744;7.358;2023-05-07T14:26:23;24.00;99.90
37310;DHT22;23195;47.744;7.358;2023-05-07T14:28:49;24.10;99.90
37310;DHT22;23195;47.744;7.358;2023-05-07T14:31:27;24.10;99.90
37310;DHT22;23195;47.744;7.358;2023-05-07T14:33:56;24.30;99.90
37310;DHT22;23195;47.744;7.358;2023-05-07T14:36:23;24.30;99.90
37310;DHT22;23195;47.744;7.358;2023-05-07T14:38:52;24.10;99.90
37310;DHT22;23195;47.744;7.358;2023-05-07T14:41:19;23.90;99.90
37310;DHT22;23195;47.744;7.358;2023-05-07T14:43:48;23.50;99.90
37310;DHT22;23195;47.744;7.358;2023-05-07T14:46:20;23.40;99.90
37310;DHT22;23195;47.744;7.358;2023-05-07T14:48:46;23.30;99.90
37310;DHT22;23195;47.744;7.358;2023-05-07T14:51:12;23.00;99.90
37310;DHT22;23195;47.744;7.358;2023-05-07T14:53:38;22.70;99.90
37310;DHT22;23195;47.744;7.358;2023-05-07T14:56:04;22.80;99.90
37310;DHT22;23195;47.744;7.358;2023-05-07T14:58:31;22.80;99.90
37310;DHT22;23195;47.744;7.358;2023-05-07T15:00:57;22.80;99.90
37310;DHT22;23195;47.744;7.358;2023-05-07T15:03:22;22.80;99.90
37310;DHT22;23195;47.744;7.358;2023-05-07T15:05:48;22.90;99.90
37310;DHT22;23195;47.744;7.358;2023-05-07T15:08:17;23.10;99.90
37310;DHT22;23195;47.744;7.358;2023-05-07T15:10:43;23.10;99.90
37310;DHT22;23195;47.744;7.358;2023-05-07T15:13:10;23.20;99.90
37310;DHT22;23195;47.744;7.358;2023-05-07T15:15:38;23.30;99.90
37310;DHT22;23195;47.744;7.358;2023-05-07T15:18:04;23.30;99.90
37310;DHT22;23195;47.744;7.358;2023-05-07T15:20:30;23.30;99.90
37310;DHT22;23195;47.744;7.358;2023-05-07T15:22:56;23.30;99.90
37310;DHT22;23195;47.744;7.358;2023-05-07T15:25:25;23.30;99.90
37310;DHT22;23195;47.744;7.358;2023-05-07T15:27:50;23.10;99.90
37310;DHT22;23195;47.744;7.358;2023-05-07T15:30:17;22.90;99.90
37310;DHT22;23195;47.744;7.358;2023-05-07T15:32:45;22.70;99.90
37310;DHT22;23195;47.744;7.358;2023-05-07T15:35:14;22.60;99.90
37310;DHT22;23195;47.744;7.358;2023-05-07T15:37:40;22.50;99.90
37310;DHT22;23195;47.744;7.358;2023-05-07T15:40:07;22.40;99.90
37310;DHT22;23195;47.744;7.358;2023-05-07T15:42:35;22.20;99.90
37310;DHT22;23195;47.744;7.358;2023-05-07T15:45:01;22.20;99.90
37310;DHT22;23195;47.744;7.358;2023-05-07T15:47:36;22.10;99.90
37310;DHT22;23195;47.744;7.358;2023-05-07T15:50:02;22.00;99.90
37310;DHT22;23195;47.744;7.358;2023-05-07T15:52:39;22.10;99.90
37310;DHT22;23195;47.744;7.358;2023-05-07T15:55:12;21.10;99.90
37310;DHT22;23195;47.744;7.358;2023-05-07T15:58:05;21.40;99.90
37310;DHT22;23195;47.744;7.358;2023-05-07T16:01:11;21.20;99.90
37310;DHT22;23195;47.744;7.358;2023-05-07T16:03:55;20.80;99.90
37310;DHT22;23195;47.744;7.358;2023-05-07T16:09:38;20.50;99.90
37310;DHT22;23195;47.744;7.358;2023-05-07T16:12:09;20.40;99.90
37310;DHT22;23195;47.744;7.358;2023-05-07T16:14:48;20.30;99.90
37310;DHT22;23195;47.744;7.358;2023-05-07T16:17:17;20.10;99.90
37310;DHT22;23195;47.744;7.358;2023-05-07T16:19:46;20.00;99.90
37310;DHT22;23195;47.744;7.358;2023-05-07T16:22:14;20.00;99.90
37310;DHT22;23195;47.744;7.358;2023-05-07T16:24:58;19.90;99.90
37310;DHT22;23195;47.744;7.358;2023-05-07T16:27:44;19.70;99.90
37310;DHT22;23195;47.744;7.358;2023-05-07T16:30:28;19.50;99.90
37310;DHT22;23195;47.744;7.358;2023-05-07T16:32:55;19.40;99.90
37310;DHT22;23195;47.744;7.358;2023-05-07T16:35:25;19.20;99.90
37310;DHT22;23195;47.744;7.358;2023-05-07T16:38:06;19.30;99.90
37310;DHT22;23195;47.744;7.358;2023-05-07T16:40:39;19.20;99.90
37310;DHT22;23195;47.744;7.358;2023-05-07T16:43:16;19.20;99.90
37310;DHT22;23195;47.744;7.358;2023-05-07T16:45:45;19.20;99.90
37310;DHT22;23195;47.744;7.358;2023-05-07T16:48:30;19.20;99.90
37310;DHT22;23195;47.744;7.358;2023-05-07T16:51:20;19.10;99.90
37310;DHT22;23195;47.744;7.358;2023-05-07T16:54:09;19.20;99.90
37310;DHT22;23195;47.744;7.358;2023-05-07T16:56:35;19.00;99.90
37310;DHT22;23195;47.744;7.358;2023-05-07T16:59:11;18.90;99.90
37310;DHT22;23195;47.744;7.358;2023-05-07T17:01:47;17.90;99.90
37310;DHT22;23195;47.744;7.358;2023-05-07T17:04:20;18.90;99.90
37310;DHT22;23195;47.744;7.358;2023-05-07T17:06:54;18.70;99.90
37310;DHT22;23195;47.744;7.358;2023-05-07T17:09:37;19.00;99.90
37310;DHT22;23195;47.744;7.358;2023-05-07T17:12:23;18.50;99.90
37310;DHT22;23195;47.744;7.358;2023-05-07T17:14:49;18.40;99.90
37310;DHT22;23195;47.744;7.358;2023-05-07T17:17:33;18.30;99.90
37310;DHT22;23195;47.744;7.358;2023-05-07T17:20:17;18.20;99.90
37310;DHT22;23195;47.744;7.358;2023-05-07T17:22:55;18.00;99.90
37310;DHT22;23195;47.744;7.358;2023-05-07T17:25:24;17.90;99.90
37310;DHT22;23195;47.744;7.358;2023-05-07T17:28:04;17.90;99.90
37310;DHT22;23195;47.744;7.358;2023-05-07T17:30:38;17.90;99.90
37310;DHT22;23195;47.744;7.358;2023-05-07T17:33:19;17.80;99.90
37310;DHT22;23195;47.744;7.358;2023-05-07T17:35:58;17.80;99.90
37310;DHT22;23195;47.744;7.358;2023-05-07T17:39:08;17.70;99.90
37310;DHT22;23195;47.744;7.358;2023-05-07T17:41:56;17.70;99.90
37310;DHT22;23195;47.744;7.358;2023-05-07T17:44:25;17.70;99.90
37310;DHT22;23195;47.744;7.358;2023-05-07T17:47:04;17.60;99.90
37310;DHT22;23195;47.744;7.358;2023-05-07T17:50:04;17.60;99.90
37310;DHT22;23195;47.744;7.358;2023-05-07T17:53:01;17.30;99.90
37310;DHT22;23195;47.744;7.358;2023-05-07T17:55:48;17.50;99.90
37310;DHT22;23195;47.744;7.358;2023-05-07T17:58:53;17.40;99.90
37310;DHT22;23195;47.744;7.358;2023-05-07T18:01:32;17.40;99.90
37310;DHT22;23195;47.744;7.358;2023-05-07T18:04:09;17.30;99.90
37310;DHT22;23195;47.744;7.358;2023-05-07T18:06:35;17.30;99.90
37310;DHT22;23195;47.744;7.358;2023-05-07T18:09:29;17.20;99.90
37310;DHT22;23195;47.744;7.358;2023-05-07T18:12:41;17.10;99.90
37310;DHT22;23195;47.744;7.358;2023-05-07T18:15:35;17.20;99.90
37310;DHT22;23195;47.744;7.358;2023-05-07T18:18:18;17.00;99.90
37310;DHT22;23195;47.744;7.358;2023-05-07T18:20:57;16.80;99.90
37310;DHT22;23195;47.744;7.358;2023-05-07T18:23:25;16.80;99.90
37310;DHT22;23195;47.744;7.358;2023-05-07T18:25:51;16.80;99.90
37310;DHT22;23195;47.744;7.358;2023-05-07T18:28:20;16.60;99.90
37310;DHT22;23195;47.744;7.358;2023-05-07T18:34:11;16.40;99.90
37310;DHT22;23195;47.744;7.358;2023-05-07T18:36:56;16.70;99.90
37310;DHT22;23195;47.744;7.358;2023-05-07T18:39:42;17.20;99.90
37310;DHT22;23195;47.744;7.358;2023-05-07T18:42:30;16.60;99.90
37310;DHT22;23195;47.744;7.358;2023-05-07T18:45:01;16.50;99.90
37310;DHT22;23195;47.744;7.358;2023-05-07T18:47:27;16.50;99.90
37310;DHT22;23195;47.744;7.358;2023-05-07T18:49:57;16.50;99.90
37310;DHT22;23195;47.744;7.358;2023-05-07T18:52:26;16.40;99.90
37310;DHT22;23195;47.744;7.358;2023-05-07T18:55:02;16.40;99.90
37310;DHT22;23195;47.744;7.358;2023-05-07T18:57:41;16.40;99.90
37310;DHT22;23195;47.744;7.358;2023-05-07T19:00:21;16.30;99.90
37310;DHT22;23195;47.744;7.358;2023-05-07T19:02:46;16.30;99.90
37310;DHT22;23195;47.744;7.358;2023-05-07T19:05:12;16.30;99.90
37310;DHT22;23195;47.744;7.358;2023-05-07T19:07:58;16.20;99.90
37310;DHT22;23195;47.744;7.358;2023-05-07T19:10:32;16.40;99.90
37310;DHT22;23195;47.744;7.358;2023-05-07T19:13:07;16.10;99.90
37310;DHT22;23195;47.744;7.358;2023-05-07T19:16:01;16.20;99.90
37310;DHT22;23195;47.744;7.358;2023-05-07T19:18:54;16.00;99.90
37310;DHT22;23195;47.744;7.358;2023-05-07T19:21:29;16.10;99.90
37310;DHT22;23195;47.744;7.358;2023-05-07T19:24:05;16.10;99.90
37310;DHT22;23195;47.744;7.358;2023-05-07T19:26:33;16.10;99.90
37310;DHT22;23195;47.744;7.358;2023-05-07T19:29:10;16.60;99.90
37310;DHT22;23195;47.744;7.358;2023-05-07T19:31:36;16.10;99.90
37310;DHT22;23195;47.744;7.358;2023-05-07T19:34:06;16.10;99.90
37310;DHT22;23195;47.744;7.358;2023-05-07T19:36:45;16.00;99.90
37310;DHT22;23195;47.744;7.358;2023-05-07T19:39:34;16.00;99.90
37310;DHT22;23195;47.744;7.358;2023-05-07T19:42:10;15.40;99.90
37310;DHT22;23195;47.744;7.358;2023-05-07T19:44:38;16.00;99.90
37310;DHT22;23195;47.744;7.358;2023-05-07T19:47:09;16.00;99.90
37310;DHT22;23195;47.744;7.358;2023-05-07T19:49:35;16.00;99.90
37310;DHT22;23195;47.744;7.358;2023-05-07T19:52:01;16.00;99.90
37310;DHT22;23195;47.744;7.358;2023-05-07T19:54:56;15.10;99.90
37310;DHT22;23195;47.744;7.358;2023-05-07T19:57:24;16.00;99.90
37310;DHT22;23195;47.744;7.358;2023-05-07T19:59:59;16.00;99.90
37310;DHT22;23195;47.744;7.358;2023-05-07T20:02:32;16.00;99.90
37310;DHT22;23195;47.744;7.358;2023-05-07T20:05:19;15.90;99.90
37310;DHT22;23195;47.744;7.358;2023-05-07T20:11:42;15.90;99.90
37310;DHT22;23195;47.744;7.358;2023-05-07T20:14:11;15.90;99.90
37310;DHT22;23195;47.744;7.358;2023-05-07T20:16:48;15.90;99.90
37310;DHT22;23195;47.744;7.358;2023-05-07T20:19:23;15.90;99.90
37310;DHT22;23195;47.744;7.358;2023-05-07T20:21:49;15.90;99.90
37310;DHT22;23195;47.744;7.358;2023-05-07T20:24:28;15.90;99.90
37310;DHT22;23195;47.744;7.358;2023-05-07T20:26:54;15.90;99.90
37310;DHT22;23195;47.744;7.358;2023-05-07T20:30:17;15.70;99.90
37310;DHT22;23195;47.744;7.358;2023-05-07T20:32:52;16.30;99.90
37310;DHT22;23195;47.744;7.358;2023-05-07T20:35:29;15.70;99.90
37310;DHT22;23195;47.744;7.358;2023-05-07T20:38:08;15.80;99.90
37310;DHT22;23195;47.744;7.358;2023-05-07T20:40:51;15.90;99.90
37310;DHT22;23195;47.744;7.358;2023-05-07T20:43:25;15.80;99.90
37310;DHT22;23195;47.744;7.358;2023-05-07T20:46:05;15.80;99.90
37310;DHT22;23195;47.744;7.358;2023-05-07T20:48:36;16.20;99.90
37310;DHT22;23195;47.744;7.358;2023-05-07T20:51:20;15.80;99.90
37310;DHT22;23195;47.744;7.358;2023-05-07T20:57:23;15.70;99.90
37310;DHT22;23195;47.744;7.358;2023-05-07T21:03:01;15.70;99.90
37310;DHT22;23195;47.744;7.358;2023-05-07T21:05:37;15.70;99.90
37310;DHT22;23195;47.744;7.358;2023-05-07T21:08:18;15.70;99.90
37310;DHT22;23195;47.744;7.358;2023-05-07T21:11:15;15.70;99.90
37310;DHT22;23195;47.744;7.358;2023-05-07T21:14:33;15.70;99.90
37310;DHT22;23195;47.744;7.358;2023-05-07T21:17:24;15.60;99.90
37310;DHT22;23195;47.744;7.358;2023-05-07T21:20:23;15.60;99.90
37310;DHT22;23195;47.744;7.358;2023-05-07T21:26:15;15.20;99.90
37310;DHT22;23195;47.744;7.358;2023-05-07T21:29:33;15.60;99.90
37310;DHT22;23195;47.744;7.358;2023-05-07T21:32:11;15.50;99.90
37310;DHT22;23195;47.744;7.358;2023-05-07T21:34:50;15.60;99.90
37310;DHT22;23195;47.744;7.358;2023-05-07T21:37:42;15.70;99.90
37310;DHT22;23195;47.744;7.358;2023-05-07T21:40:29;15.60;99.90
37310;DHT22;23195;47.744;7.358;2023-05-07T21:43:06;15.50;99.90
37310;DHT22;23195;47.744;7.358;2023-05-07T21:45:46;15.50;99.90
37310;DHT22;23195;47.744;7.358;2023-05-07T21:48:38;15.50;99.90
37310;DHT22;23195;47.744;7.358;2023-05-07T21:51:24;15.40;99.90
37310;DHT22;23195;47.744;7.358;2023-05-07T21:54:00;15.40;99.90
37310;DHT22;23195;47.744;7.358;2023-05-07T21:56:56;15.40;99.90
37310;DHT22;23195;47.744;7.358;2023-05-07T21:59:34;15.40;99.90
37310;DHT22;23195;47.744;7.358;2023-05-07T22:02:17;15.40;99.90
37310;DHT22;23195;47.744;7.358;2023-05-07T22:10:10;15.40;99.90
37310;DHT22;23195;47.744;7.358;2023-05-07T22:12:46;15.40;99.90
37310;DHT22;23195;47.744;7.358;2023-05-07T22:15:38;15.40;99.90
37310;DHT22;23195;47.744;7.358;2023-05-07T22:18:17;15.40;99.90
37310;DHT22;23195;47.744;7.358;2023-05-07T22:20:56;15.40;99.90
37310;DHT22;23195;47.744;7.358;2023-05-07T22:23:49;15.30;99.90
37310;DHT22;23195;47.744;7.358;2023-05-07T22:26:35;15.30;99.90
37310;DHT22;23195;47.744;7.358;2023-05-07T22:29:11;15.90;99.90
37310;DHT22;23195;47.744;7.358;2023-05-07T22:31:48;15.40;99.90
37310;DHT22;23195;47.744;7.358;2023-05-07T22:34:17;14.00;99.90
37310;DHT22;23195;47.744;7.358;2023-05-07T22:37:05;15.30;99.90
37310;DHT22;23195;47.744;7.358;2023-05-07T22:39:44;15.90;99.90
37310;DHT22;23195;47.744;7.358;2023-05-07T22:42:19;15.30;99.90
37310;DHT22;23195;47.744;7.358;2023-05-07T22:45:08;15.30;99.90
37310;DHT22;23195;47.744;7.358;2023-05-07T22:48:03;15.30;99.90
37310;DHT22;23195;47.744;7.358;2023-05-07T22:51:11;15.40;99.90
37310;DHT22;23195;47.744;7.358;2023-05-07T22:53:47;15.30;99.90
37310;DHT22;23195;47.744;7.358;2023-05-07T22:56:15;15.30;99.90
37310;DHT22;23195;47.744;7.358;2023-05-07T23:01:52;15.30;99.90
37310;DHT22;23195;47.744;7.358;2023-05-07T23:05:06;15.30;99.90
37310;DHT22;23195;47.744;7.358;2023-05-07T23:07:45;15.40;99.90
37310;DHT22;23195;47.744;7.358;2023-05-07T23:10:26;15.30;99.90
37310;DHT22;23195;47.744;7.358;2023-05-07T23:13:02;15.00;99.90
37310;DHT22;23195;47.744;7.358;2023-05-07T23:15:42;15.70;99.90
37310;DHT22;23195;47.744;7.358;2023-05-07T23:18:13;15.30;99.90
37310;DHT22;23195;47.744;7.358;2023-05-07T23:21:07;15.30;99.90
37310;DHT22;23195;47.744;7.358;2023-05-07T23:23:43;15.30;99.90
37310;DHT22;23195;47.744;7.358;2023-05-07T23:26:25;15.20;99.90
37310;DHT22;23195;47.744;7.358;2023-05-07T23:29:22;15.30;99.90
37310;DHT22;23195;47.744;7.358;2023-05-07T23:31:59;15.20;99.90
37310;DHT22;23195;47.744;7.358;2023-05-07T23:34:41;15.30;99.90
37310;DHT22;23195;47.744;7.358;2023-05-07T23:37:17;15.20;99.90
37310;DHT22;23195;47.744;7.358;2023-05-07T23:40:04;15.20;99.90
37310;DHT22;23195;47.744;7.358;2023-05-07T23:45:58;14.90;99.90
37310;DHT22;23195;47.744;7.358;2023-05-07T23:48:56;15.20;99.90
37310;DHT22;23195;47.744;7.358;2023-05-07T23:51:22;15.20;99.90
37310;DHT22;23195;47.744;7.358;2023-05-07T23:53:55;15.20;99.90
37310;DHT22;23195;47.744;7.358;2023-05-07T23:56:51;15.20;99.90
37310;DHT22;23195;47.744;7.358;2023-05-07T23:59:33;15.20;99.90
